sensor_id;sensor_type;location;lat;lon;timestamp;pressure;altitude;pressure_sealevel;temperature;humidity
38912;BME280;28444;48.056;14.408;2023-07-09T00:01:35;98015.34;;;20.02;73.27
38912;BME280;28444;48.056;14.408;2023-07-09T00:04:24;98010.81;;;19.95;73.79
38912;BME280;28444;48.056;14.408;2023-07-09T00:07:31;98014.13;;;19.91;73.82
38912;BME280;28444;48.056;14.408;2023-07-09T00:10:20;98007.72;;;19.89;73.46
38912;BME280;28444;48.056;14.408;2023-07-09T00:13:07;98006.09;;;19.84;74.69
38912;BME280;28444;48.056;14.408;2023-07-09T00:15:57;98010.19;;;19.69;75.01
38912;BME280;28444;48.056;14.408;2023-07-09T00:18:46;98007.94;;;19.65;75.46
38912;BME280;28444;48.056;14.408;2023-07-09T00:21:35;98016.13;;;19.63;75.02
38912;BME280;28444;48.056;14.408;2023-07-09T00:24:22;98014.09;;;19.64;75.42
38912;BME280;28444;48.056;14.408;2023-07-09T00:27:11;98022.16;;;19.60;74.93
38912;BME280;28444;48.056;14.408;2023-07-09T00:29:58;98026.78;;;19.55;75.01
38912;BME280;28444;48.056;14.408;2023-07-09T00:32:45;98021.75;;;19.52;75.48
38912;BME280;28444;48.056;14.408;2023-07-09T00:35:32;98019.81;;;19.54;75.27
38912;BME280;28444;48.056;14.408;2023-07-09T00:38:21;98025.88;;;19.51;75.73
38912;BME280;28444;48.056;14.408;2023-07-09T00:41:15;98020.31;;;19.51;75.77
38912;BME280;28444;48.056;14.408;2023-07-09T00:50:03;98024.41;;;19.36;75.68
38912;BME280;28444;48.056;14.408;2023-07-09T00:52:58;98020.66;;;19.31;75.93
38912;BME280;28444;48.056;14.408;2023-07-09T00:55:54;98016.97;;;19.27;76.58
38912;BME280;28444;48.056;14.408;2023-07-09T00:58:43;98016.25;;;19.26;75.78
38912;BME280;28444;48.056;14.408;2023-07-09T01:01:34;98016.16;;;19.38;75.43
38912;BME280;28444;48.056;14.408;2023-07-09T01:04:22;98018.66;;;19.45;75.24
38912;BME280;28444;48.056;14.408;2023-07-09T01:07:10;98018.34;;;19.53;75.25
38912;BME280;28444;48.056;14.408;2023-07-09T01:09:57;98024.31;;;19.47;75.46
38912;BME280;28444;48.056;14.408;2023-07-09T01:12:45;98011.34;;;19.38;76.13
38912;BME280;28444;48.056;14.408;2023-07-09T01:15:35;98027.34;;;19.26;76.84
38912;BME280;28444;48.056;14.408;2023-07-09T01:18:24;98036.50;;;19.03;78.05
38912;BME280;28444;48.056;14.408;2023-07-09T01:21:11;98032.75;;;18.85;79.00
38912;BME280;28444;48.056;14.408;2023-07-09T01:24:13;98045.75;;;18.82;79.44
38912;BME280;28444;48.056;14.408;2023-07-09T01:27:01;98048.88;;;18.76;79.45
38912;BME280;28444;48.056;14.408;2023-07-09T01:29:48;98040.91;;;18.83;79.39
38912;BME280;28444;48.056;14.408;2023-07-09T01:32:37;98044.53;;;18.85;79.76
38912;BME280;28444;48.056;14.408;2023-07-09T01:35:25;98045.81;;;18.96;79.48
38912;BME280;28444;48.056;14.408;2023-07-09T01:38:13;98042.81;;;18.92;78.53
38912;BME280;28444;48.056;14.408;2023-07-09T01:41:01;98045.69;;;18.94;78.29
38912;BME280;28444;48.056;14.408;2023-07-09T01:43:48;98054.84;;;18.96;78.22
38912;BME280;28444;48.056;14.408;2023-07-09T01:46:35;98055.06;;;19.00;78.33
38912;BME280;28444;48.056;14.408;2023-07-09T01:49:22;98059.94;;;19.14;78.31
38912;BME280;28444;48.056;14.408;2023-07-09T01:52:09;98053.44;;;19.09;78.00
38912;BME280;28444;48.056;14.408;2023-07-09T01:54:56;98051.19;;;19.06;78.16
38912;BME280;28444;48.056;14.408;2023-07-09T01:57:44;98051.91;;;19.06;77.25
38912;BME280;28444;48.056;14.408;2023-07-09T02:00:33;98059.38;;;19.04;77.40
38912;BME280;28444;48.056;14.408;2023-07-09T02:03:23;98061.16;;;19.11;77.31
38912;BME280;28444;48.056;14.408;2023-07-09T02:06:11;98057.41;;;19.18;76.92
38912;BME280;28444;48.056;14.408;2023-07-09T02:08:59;98054.06;;;19.08;77.26
38912;BME280;28444;48.056;14.408;2023-07-09T02:11:46;98057.44;;;19.06;77.18
38912;BME280;28444;48.056;14.408;2023-07-09T02:14:33;98058.91;;;19.07;77.07
38912;BME280;28444;48.056;14.408;2023-07-09T02:17:19;98052.38;;;19.03;77.08
38912;BME280;28444;48.056;14.408;2023-07-09T02:20:08;98059.28;;;19.02;77.11
38912;BME280;28444;48.056;14.408;2023-07-09T02:22:55;98054.63;;;18.92;77.86
38912;BME280;28444;48.056;14.408;2023-07-09T02:25:42;98062.09;;;18.90;78.02
38912;BME280;28444;48.056;14.408;2023-07-09T02:28:29;98061.25;;;18.87;78.23
38912;BME280;28444;48.056;14.408;2023-07-09T02:31:16;98066.06;;;18.87;78.30
38912;BME280;28444;48.056;14.408;2023-07-09T02:34:03;98056.81;;;18.82;78.68
38912;BME280;28444;48.056;14.408;2023-07-09T02:36:50;98062.47;;;18.84;78.41
38912;BME280;28444;48.056;14.408;2023-07-09T02:39:37;98067.69;;;18.78;78.84
38912;BME280;28444;48.056;14.408;2023-07-09T02:42:24;98064.41;;;18.70;79.34
38912;BME280;28444;48.056;14.408;2023-07-09T02:45:11;98072.75;;;18.58;80.12
38912;BME280;28444;48.056;14.408;2023-07-09T02:47:58;98071.31;;;18.57;80.64
38912;BME280;28444;48.056;14.408;2023-07-09T02:50:45;98083.50;;;18.52;80.55
38912;BME280;28444;48.056;14.408;2023-07-09T02:53:32;98081.31;;;18.50;80.65
38912;BME280;28444;48.056;14.408;2023-07-09T02:56:19;98085.28;;;18.47;80.86
38912;BME280;28444;48.056;14.408;2023-07-09T02:59:05;98079.28;;;18.51;80.50
38912;BME280;28444;48.056;14.408;2023-07-09T03:01:53;98071.84;;;18.42;81.20
38912;BME280;28444;48.056;14.408;2023-07-09T03:04:40;98074.94;;;18.48;80.69
38912;BME280;28444;48.056;14.408;2023-07-09T03:07:26;98071.81;;;18.53;80.26
38912;BME280;28444;48.056;14.408;2023-07-09T03:10:13;98068.91;;;18.63;79.72
38912;BME280;28444;48.056;14.408;2023-07-09T03:13:00;98074.22;;;18.71;79.72
38912;BME280;28444;48.056;14.408;2023-07-09T03:15:55;98076.97;;;18.71;79.53
38912;BME280;28444;48.056;14.408;2023-07-09T03:18:42;98082.63;;;18.73;79.08
38912;BME280;28444;48.056;14.408;2023-07-09T03:21:29;98076.09;;;18.80;79.10
38912;BME280;28444;48.056;14.408;2023-07-09T03:24:16;98083.19;;;18.83;78.74
38912;BME280;28444;48.056;14.408;2023-07-09T03:27:06;98088.25;;;18.87;78.57
38912;BME280;28444;48.056;14.408;2023-07-09T03:29:53;98102.31;;;18.91;78.61
38912;BME280;28444;48.056;14.408;2023-07-09T03:32:40;98100.25;;;18.91;78.50
38912;BME280;28444;48.056;14.408;2023-07-09T03:35:27;98104.03;;;18.84;78.71
38912;BME280;28444;48.056;14.408;2023-07-09T03:38:14;98111.03;;;18.85;78.12
38912;BME280;28444;48.056;14.408;2023-07-09T03:41:01;98118.63;;;18.73;78.56
38912;BME280;28444;48.056;14.408;2023-07-09T03:43:48;98111.50;;;18.70;78.77
38912;BME280;28444;48.056;14.408;2023-07-09T03:46:39;98107.44;;;18.71;78.84
38912;BME280;28444;48.056;14.408;2023-07-09T03:49:26;98113.94;;;18.64;78.81
38912;BME280;28444;48.056;14.408;2023-07-09T03:52:13;98111.97;;;18.66;79.18
38912;BME280;28444;48.056;14.408;2023-07-09T03:55:00;98107.28;;;18.81;78.76
38912;BME280;28444;48.056;14.408;2023-07-09T03:57:48;98110.06;;;18.81;78.00
38912;BME280;28444;48.056;14.408;2023-07-09T04:00:35;98121.47;;;18.87;77.55
38912;BME280;28444;48.056;14.408;2023-07-09T04:03:23;98111.69;;;18.97;77.37
38912;BME280;28444;48.056;14.408;2023-07-09T04:06:10;98108.91;;;18.97;77.44
38912;BME280;28444;48.056;14.408;2023-07-09T04:08:57;98111.59;;;18.95;77.39
38912;BME280;28444;48.056;14.408;2023-07-09T04:11:47;98105.16;;;19.05;76.93
38912;BME280;28444;48.056;14.408;2023-07-09T04:14:34;98108.16;;;19.09;76.27
38912;BME280;28444;48.056;14.408;2023-07-09T04:17:21;98112.25;;;19.08;76.38
38912;BME280;28444;48.056;14.408;2023-07-09T04:20:10;98106.59;;;19.06;76.46
38912;BME280;28444;48.056;14.408;2023-07-09T04:22:57;98096.13;;;19.04;77.16
38912;BME280;28444;48.056;14.408;2023-07-09T04:25:44;98103.22;;;19.07;77.25
38912;BME280;28444;48.056;14.408;2023-07-09T04:28:31;98101.91;;;19.08;77.19
38912;BME280;28444;48.056;14.408;2023-07-09T04:31:18;98104.16;;;19.12;76.36
38912;BME280;28444;48.056;14.408;2023-07-09T04:34:05;98113.69;;;19.09;76.70
38912;BME280;28444;48.056;14.408;2023-07-09T04:36:53;98116.47;;;19.09;76.41
38912;BME280;28444;48.056;14.408;2023-07-09T04:39:40;98110.16;;;19.20;76.12
38912;BME280;28444;48.056;14.408;2023-07-09T04:42:27;98117.97;;;19.23;75.68
38912;BME280;28444;48.056;14.408;2023-07-09T04:45:14;98123.41;;;19.21;75.52
38912;BME280;28444;48.056;14.408;2023-07-09T04:48:02;98124.22;;;19.24;75.80
38912;BME280;28444;48.056;14.408;2023-07-09T04:50:49;98124.97;;;19.24;75.88
38912;BME280;28444;48.056;14.408;2023-07-09T04:53:37;98128.06;;;19.31;75.89
38912;BME280;28444;48.056;14.408;2023-07-09T04:56:25;98126.13;;;19.33;76.29
38912;BME280;28444;48.056;14.408;2023-07-09T04:59:12;98126.47;;;19.39;75.87
38912;BME280;28444;48.056;14.408;2023-07-09T05:01:59;98127.13;;;19.52;75.35
38912;BME280;28444;48.056;14.408;2023-07-09T05:04:46;98125.28;;;19.56;74.93
38912;BME280;28444;48.056;14.408;2023-07-09T05:07:33;98134.81;;;19.53;74.90
38912;BME280;28444;48.056;14.408;2023-07-09T05:10:20;98138.06;;;19.61;74.53
38912;BME280;28444;48.056;14.408;2023-07-09T05:13:07;98143.47;;;19.59;74.80
38912;BME280;28444;48.056;14.408;2023-07-09T05:15:54;98148.44;;;19.61;74.86
38912;BME280;28444;48.056;14.408;2023-07-09T05:18:41;98145.41;;;19.68;75.09
38912;BME280;28444;48.056;14.408;2023-07-09T05:21:28;98147.75;;;19.74;74.80
38912;BME280;28444;48.056;14.408;2023-07-09T05:24:15;98149.75;;;19.85;74.58
38912;BME280;28444;48.056;14.408;2023-07-09T05:27:02;98152.63;;;19.87;74.37
38912;BME280;28444;48.056;14.408;2023-07-09T05:29:49;98151.63;;;19.94;73.52
38912;BME280;28444;48.056;14.408;2023-07-09T05:32:37;98144.56;;;20.05;73.31
38912;BME280;28444;48.056;14.408;2023-07-09T05:35:25;98148.13;;;20.08;73.21
38912;BME280;28444;48.056;14.408;2023-07-09T05:38:13;98151.56;;;20.20;73.06
38912;BME280;28444;48.056;14.408;2023-07-09T05:41:02;98151.34;;;20.30;72.96
38912;BME280;28444;48.056;14.408;2023-07-09T05:43:51;98148.06;;;20.33;72.41
38912;BME280;28444;48.056;14.408;2023-07-09T05:46:38;98147.47;;;20.49;71.09
38912;BME280;28444;48.056;14.408;2023-07-09T05:49:25;98147.28;;;20.58;70.51
38912;BME280;28444;48.056;14.408;2023-07-09T05:52:12;98156.13;;;20.55;70.90
38912;BME280;28444;48.056;14.408;2023-07-09T05:54:59;98157.78;;;20.74;70.85
38912;BME280;28444;48.056;14.408;2023-07-09T05:57:47;98152.50;;;20.80;70.29
38912;BME280;28444;48.056;14.408;2023-07-09T06:00:33;98159.72;;;20.85;70.14
38912;BME280;28444;48.056;14.408;2023-07-09T06:03:24;98155.91;;;20.92;70.11
38912;BME280;28444;48.056;14.408;2023-07-09T06:06:11;98150.09;;;21.02;70.56
38912;BME280;28444;48.056;14.408;2023-07-09T06:08:59;98163.97;;;21.15;69.25
38912;BME280;28444;48.056;14.408;2023-07-09T06:11:46;98158.59;;;21.33;67.61
38912;BME280;28444;48.056;14.408;2023-07-09T06:14:33;98159.41;;;21.36;67.09
38912;BME280;28444;48.056;14.408;2023-07-09T06:17:20;98166.34;;;21.51;66.96
38912;BME280;28444;48.056;14.408;2023-07-09T06:20:08;98164.66;;;21.59;67.17
38912;BME280;28444;48.056;14.408;2023-07-09T06:22:55;98160.19;;;21.68;67.71
38912;BME280;28444;48.056;14.408;2023-07-09T06:25:43;98167.66;;;21.79;66.78
38912;BME280;28444;48.056;14.408;2023-07-09T06:28:33;98159.88;;;21.92;65.23
38912;BME280;28444;48.056;14.408;2023-07-09T06:31:20;98164.53;;;22.03;64.93
38912;BME280;28444;48.056;14.408;2023-07-09T06:34:08;98174.91;;;22.16;65.42
38912;BME280;28444;48.056;14.408;2023-07-09T06:36:56;98171.94;;;22.28;65.40
38912;BME280;28444;48.056;14.408;2023-07-09T06:39:43;98178.66;;;22.39;63.85
38912;BME280;28444;48.056;14.408;2023-07-09T06:42:30;98174.16;;;22.47;65.61
38912;BME280;28444;48.056;14.408;2023-07-09T06:45:17;98177.13;;;22.51;64.47
38912;BME280;28444;48.056;14.408;2023-07-09T06:48:04;98170.53;;;22.61;64.98
38912;BME280;28444;48.056;14.408;2023-07-09T06:50:52;98176.38;;;22.67;63.77
38912;BME280;28444;48.056;14.408;2023-07-09T06:53:40;98162.53;;;22.69;63.50
38912;BME280;28444;48.056;14.408;2023-07-09T06:56:27;98167.34;;;22.84;63.54
38912;BME280;28444;48.056;14.408;2023-07-09T06:59:14;98164.09;;;22.90;62.39
38912;BME280;28444;48.056;14.408;2023-07-09T07:02:01;98166.63;;;22.99;62.92
38912;BME280;28444;48.056;14.408;2023-07-09T07:04:48;98163.44;;;23.07;61.26
38912;BME280;28444;48.056;14.408;2023-07-09T07:07:35;98160.16;;;23.30;59.39
38912;BME280;28444;48.056;14.408;2023-07-09T07:10:22;98157.72;;;23.21;60.45
38912;BME280;28444;48.056;14.408;2023-07-09T07:13:09;98166.09;;;23.39;60.28
38912;BME280;28444;48.056;14.408;2023-07-09T07:15:56;98157.72;;;23.21;60.52
38912;BME280;28444;48.056;14.408;2023-07-09T07:18:43;98159.31;;;23.26;62.16
38912;BME280;28444;48.056;14.408;2023-07-09T07:21:30;98156.66;;;23.48;59.64
38912;BME280;28444;48.056;14.408;2023-07-09T07:24:17;98150.38;;;23.47;60.03
38912;BME280;28444;48.056;14.408;2023-07-09T07:27:04;98158.50;;;23.59;59.67
38912;BME280;28444;48.056;14.408;2023-07-09T07:29:51;98159.94;;;23.78;59.35
38912;BME280;28444;48.056;14.408;2023-07-09T07:32:45;98160.25;;;23.86;60.15
38912;BME280;28444;48.056;14.408;2023-07-09T07:35:32;98149.75;;;24.05;58.95
38912;BME280;28444;48.056;14.408;2023-07-09T07:38:19;98155.13;;;24.18;58.74
38912;BME280;28444;48.056;14.408;2023-07-09T07:41:07;98155.84;;;24.19;59.91
38912;BME280;28444;48.056;14.408;2023-07-09T07:43:54;98148.75;;;24.36;59.83
38912;BME280;28444;48.056;14.408;2023-07-09T07:46:41;98155.78;;;24.37;59.62
38912;BME280;28444;48.056;14.408;2023-07-09T07:49:28;98153.28;;;24.45;60.07
38912;BME280;28444;48.056;14.408;2023-07-09T07:52:15;98153.00;;;24.57;60.75
38912;BME280;28444;48.056;14.408;2023-07-09T07:55:02;98145.66;;;24.67;59.28
38912;BME280;28444;48.056;14.408;2023-07-09T07:57:49;98152.19;;;24.74;59.20
38912;BME280;28444;48.056;14.408;2023-07-09T08:00:36;98139.75;;;24.79;57.62
38912;BME280;28444;48.056;14.408;2023-07-09T08:03:26;98137.50;;;24.95;55.96
38912;BME280;28444;48.056;14.408;2023-07-09T08:06:13;98137.34;;;25.11;56.53
38912;BME280;28444;48.056;14.408;2023-07-09T08:09:00;98133.50;;;25.23;57.23
38912;BME280;28444;48.056;14.408;2023-07-09T08:11:47;98129.00;;;25.35;56.11
38912;BME280;28444;48.056;14.408;2023-07-09T08:14:36;98136.75;;;25.37;55.58
38912;BME280;28444;48.056;14.408;2023-07-09T08:17:23;98134.19;;;25.45;56.53
38912;BME280;28444;48.056;14.408;2023-07-09T08:20:10;98139.38;;;25.55;52.14
38912;BME280;28444;48.056;14.408;2023-07-09T08:22:57;98136.00;;;25.58;52.43
38912;BME280;28444;48.056;14.408;2023-07-09T08:25:44;98139.22;;;25.73;51.07
38912;BME280;28444;48.056;14.408;2023-07-09T08:28:31;98130.22;;;25.76;50.40
38912;BME280;28444;48.056;14.408;2023-07-09T08:31:18;98135.19;;;26.02;51.35
38912;BME280;28444;48.056;14.408;2023-07-09T08:34:06;98135.88;;;26.02;50.93
38912;BME280;28444;48.056;14.408;2023-07-09T08:36:54;98136.28;;;26.16;51.84
38912;BME280;28444;48.056;14.408;2023-07-09T08:39:40;98135.00;;;26.22;51.62
38912;BME280;28444;48.056;14.408;2023-07-09T08:42:42;98143.56;;;26.26;51.82
38912;BME280;28444;48.056;14.408;2023-07-09T08:46:17;98134.69;;;26.35;51.27
38912;BME280;28444;48.056;14.408;2023-07-09T08:49:15;98128.16;;;26.53;51.75
38912;BME280;28444;48.056;14.408;2023-07-09T08:52:43;98133.38;;;26.64;52.93
38912;BME280;28444;48.056;14.408;2023-07-09T08:55:28;98123.19;;;26.77;52.28
38912;BME280;28444;48.056;14.408;2023-07-09T08:58:25;98121.44;;;26.64;50.97
38912;BME280;28444;48.056;14.408;2023-07-09T09:01:23;98128.34;;;26.59;50.89
38912;BME280;28444;48.056;14.408;2023-07-09T09:04:23;98123.59;;;26.66;50.83
38912;BME280;28444;48.056;14.408;2023-07-09T09:07:34;98122.50;;;26.79;51.66
38912;BME280;28444;48.056;14.408;2023-07-09T09:10:41;98115.78;;;26.90;51.47
38912;BME280;28444;48.056;14.408;2023-07-09T09:13:30;98121.34;;;26.88;48.59
38912;BME280;28444;48.056;14.408;2023-07-09T09:16:25;98118.06;;;27.26;48.04
38912;BME280;28444;48.056;14.408;2023-07-09T09:19:25;98119.59;;;27.31;47.64
38912;BME280;28444;48.056;14.408;2023-07-09T09:22:17;98120.38;;;27.35;48.50
38912;BME280;28444;48.056;14.408;2023-07-09T09:28:13;98117.19;;;27.49;45.23
38912;BME280;28444;48.056;14.408;2023-07-09T09:31:01;98119.19;;;27.77;45.40
38912;BME280;28444;48.056;14.408;2023-07-09T09:33:49;98120.03;;;27.83;47.19
38912;BME280;28444;48.056;14.408;2023-07-09T09:36:36;98121.53;;;27.89;45.92
38912;BME280;28444;48.056;14.408;2023-07-09T09:39:25;98122.13;;;27.83;46.83
38912;BME280;28444;48.056;14.408;2023-07-09T09:42:12;98110.75;;;27.77;47.10
38912;BME280;28444;48.056;14.408;2023-07-09T09:45:00;98115.81;;;27.82;45.76
38912;BME280;28444;48.056;14.408;2023-07-09T09:47:48;98113.09;;;27.89;46.26
38912;BME280;28444;48.056;14.408;2023-07-09T09:50:35;98122.63;;;28.07;46.67
38912;BME280;28444;48.056;14.408;2023-07-09T09:53:24;98117.72;;;28.08;43.89
38912;BME280;28444;48.056;14.408;2023-07-09T09:56:15;98121.38;;;28.15;43.68
38912;BME280;28444;48.056;14.408;2023-07-09T09:59:05;98123.13;;;27.98;43.83
38912;BME280;28444;48.056;14.408;2023-07-09T10:02:01;98115.25;;;27.90;43.61
38912;BME280;28444;48.056;14.408;2023-07-09T10:04:51;98115.41;;;27.98;43.84
38912;BME280;28444;48.056;14.408;2023-07-09T10:07:43;98115.63;;;28.08;44.63
38912;BME280;28444;48.056;14.408;2023-07-09T10:10:34;98120.69;;;28.16;45.89
38912;BME280;28444;48.056;14.408;2023-07-09T10:13:28;98116.09;;;28.33;44.19
38912;BME280;28444;48.056;14.408;2023-07-09T10:16:24;98116.38;;;28.47;44.46
38912;BME280;28444;48.056;14.408;2023-07-09T10:19:21;98111.53;;;28.52;42.11
38912;BME280;28444;48.056;14.408;2023-07-09T10:22:35;98112.09;;;28.44;42.72
38912;BME280;28444;48.056;14.408;2023-07-09T10:25:37;98106.56;;;28.48;41.83
38912;BME280;28444;48.056;14.408;2023-07-09T10:31:51;98108.25;;;28.66;39.71
38912;BME280;28444;48.056;14.408;2023-07-09T10:40:43;98103.66;;;28.87;41.25
38912;BME280;28444;48.056;14.408;2023-07-09T10:43:44;98092.66;;;29.01;41.66
38912;BME280;28444;48.056;14.408;2023-07-09T10:46:34;98090.69;;;29.10;40.49
38912;BME280;28444;48.056;14.408;2023-07-09T10:49:30;98096.50;;;29.20;39.61
38912;BME280;28444;48.056;14.408;2023-07-09T10:52:25;98088.91;;;29.33;41.11
38912;BME280;28444;48.056;14.408;2023-07-09T10:55:21;98089.75;;;29.43;40.12
38912;BME280;28444;48.056;14.408;2023-07-09T10:58:27;98083.00;;;29.61;39.94
38912;BME280;28444;48.056;14.408;2023-07-09T11:01:15;98084.25;;;29.51;39.61
38912;BME280;28444;48.056;14.408;2023-07-09T11:04:18;98086.75;;;29.29;40.06
38912;BME280;28444;48.056;14.408;2023-07-09T11:07:12;98087.44;;;29.27;41.55
38912;BME280;28444;48.056;14.408;2023-07-09T11:10:03;98084.13;;;29.41;38.67
38912;BME280;28444;48.056;14.408;2023-07-09T11:15:51;98082.13;;;29.52;38.06
38912;BME280;28444;48.056;14.408;2023-07-09T11:18:54;98085.25;;;29.72;35.46
38912;BME280;28444;48.056;14.408;2023-07-09T11:22:39;98081.69;;;29.70;35.59
38912;BME280;28444;48.056;14.408;2023-07-09T11:25:10;98076.22;;;29.82;36.40
38912;BME280;28444;48.056;14.408;2023-07-09T11:28:06;98076.47;;;30.05;36.33
38912;BME280;28444;48.056;14.408;2023-07-09T11:30:54;98073.06;;;30.16;36.21
38912;BME280;28444;48.056;14.408;2023-07-09T11:33:47;98073.94;;;30.29;35.90
38912;BME280;28444;48.056;14.408;2023-07-09T11:37:08;98074.50;;;30.17;37.33
38912;BME280;28444;48.056;14.408;2023-07-09T11:39:52;98075.13;;;30.12;35.60
38912;BME280;28444;48.056;14.408;2023-07-09T11:43:24;98072.13;;;29.95;35.50
38912;BME280;28444;48.056;14.408;2023-07-09T11:46:16;98066.41;;;29.87;36.64
38912;BME280;28444;48.056;14.408;2023-07-09T11:49:04;98063.63;;;29.89;36.09
38912;BME280;28444;48.056;14.408;2023-07-09T11:52:00;98060.97;;;30.06;37.15
38912;BME280;28444;48.056;14.408;2023-07-09T11:54:48;98057.44;;;30.05;34.46
38912;BME280;28444;48.056;14.408;2023-07-09T11:57:38;98047.53;;;30.00;33.10
38912;BME280;28444;48.056;14.408;2023-07-09T12:00:28;98049.81;;;30.16;36.26
38912;BME280;28444;48.056;14.408;2023-07-09T12:03:32;98044.84;;;30.12;35.32
38912;BME280;28444;48.056;14.408;2023-07-09T12:06:29;98037.31;;;30.35;32.86
38912;BME280;28444;48.056;14.408;2023-07-09T12:09:20;98034.59;;;30.43;32.99
38912;BME280;28444;48.056;14.408;2023-07-09T12:12:22;98026.16;;;30.50;33.00
38912;BME280;28444;48.056;14.408;2023-07-09T12:15:23;98028.31;;;30.51;33.30
38912;BME280;28444;48.056;14.408;2023-07-09T12:18:13;98031.91;;;30.62;33.65
38912;BME280;28444;48.056;14.408;2023-07-09T12:21:00;98026.94;;;30.58;32.34
38912;BME280;28444;48.056;14.408;2023-07-09T12:23:49;98033.22;;;30.49;34.26
38912;BME280;28444;48.056;14.408;2023-07-09T12:26:36;98031.78;;;30.43;31.19
38912;BME280;28444;48.056;14.408;2023-07-09T12:29:31;98018.38;;;30.46;34.04
38912;BME280;28444;48.056;14.408;2023-07-09T12:32:18;98023.19;;;30.29;34.15
38912;BME280;28444;48.056;14.408;2023-07-09T12:35:12;98020.16;;;30.11;31.29
38912;BME280;28444;48.056;14.408;2023-07-09T12:38:00;98011.84;;;30.23;33.18
38912;BME280;28444;48.056;14.408;2023-07-09T12:40:48;98010.56;;;30.36;32.11
38912;BME280;28444;48.056;14.408;2023-07-09T12:43:36;98016.94;;;30.41;33.58
38912;BME280;28444;48.056;14.408;2023-07-09T12:46:23;98000.78;;;30.50;34.65
38912;BME280;28444;48.056;14.408;2023-07-09T12:49:26;97995.22;;;30.60;33.07
38912;BME280;28444;48.056;14.408;2023-07-09T12:52:20;97993.88;;;30.71;32.62
38912;BME280;28444;48.056;14.408;2023-07-09T12:55:23;97992.50;;;30.72;32.83
38912;BME280;28444;48.056;14.408;2023-07-09T12:58:24;97983.44;;;30.88;33.04
38912;BME280;28444;48.056;14.408;2023-07-09T13:01:15;97985.56;;;30.89;33.15
38912;BME280;28444;48.056;14.408;2023-07-09T13:04:03;97986.97;;;30.86;32.11
38912;BME280;28444;48.056;14.408;2023-07-09T13:06:50;97981.34;;;30.88;32.14
38912;BME280;28444;48.056;14.408;2023-07-09T13:09:47;97984.09;;;30.78;32.16
38912;BME280;28444;48.056;14.408;2023-07-09T13:12:39;97987.56;;;30.73;34.28
38912;BME280;28444;48.056;14.408;2023-07-09T13:18:24;97979.25;;;30.97;32.77
38912;BME280;28444;48.056;14.408;2023-07-09T13:21:16;97979.34;;;31.09;32.99
38912;BME280;28444;48.056;14.408;2023-07-09T13:24:16;97974.44;;;31.16;34.30
38912;BME280;28444;48.056;14.408;2023-07-09T13:27:03;97970.88;;;31.13;33.25
38912;BME280;28444;48.056;14.408;2023-07-09T13:29:52;97975.81;;;31.09;33.02
38912;BME280;28444;48.056;14.408;2023-07-09T13:32:39;97971.53;;;31.04;35.26
38912;BME280;28444;48.056;14.408;2023-07-09T13:35:26;97975.84;;;31.13;33.77
38912;BME280;28444;48.056;14.408;2023-07-09T13:38:15;97973.66;;;31.03;32.81
38912;BME280;28444;48.056;14.408;2023-07-09T13:41:14;97974.38;;;31.06;32.77
38912;BME280;28444;48.056;14.408;2023-07-09T13:44:11;97973.69;;;31.05;34.40
38912;BME280;28444;48.056;14.408;2023-07-09T13:46:59;97969.41;;;30.98;33.12
38912;BME280;28444;48.056;14.408;2023-07-09T13:49:46;97965.84;;;30.91;32.71
38912;BME280;28444;48.056;14.408;2023-07-09T13:52:34;97972.22;;;30.96;33.72
38912;BME280;28444;48.056;14.408;2023-07-09T13:55:22;97973.66;;;31.03;33.51
38912;BME280;28444;48.056;14.408;2023-07-09T13:58:12;97974.38;;;31.02;35.19
38912;BME280;28444;48.056;14.408;2023-07-09T14:01:05;97973.63;;;30.99;34.88
38912;BME280;28444;48.056;14.408;2023-07-09T14:03:57;97963.78;;;31.04;34.75
38912;BME280;28444;48.056;14.408;2023-07-09T14:06:47;97965.91;;;31.08;34.67
38912;BME280;28444;48.056;14.408;2023-07-09T14:09:34;97958.84;;;31.07;34.94
38912;BME280;28444;48.056;14.408;2023-07-09T14:12:21;97963.84;;;31.16;34.20
38912;BME280;28444;48.056;14.408;2023-07-09T14:15:15;97964.59;;;31.25;34.90
38912;BME280;28444;48.056;14.408;2023-07-09T14:18:04;97965.41;;;31.42;32.60
38912;BME280;28444;48.056;14.408;2023-07-09T14:20:51;97960.41;;;31.36;30.71
38912;BME280;28444;48.056;14.408;2023-07-09T14:23:39;97951.19;;;31.26;32.27
38912;BME280;28444;48.056;14.408;2023-07-09T14:26:26;97958.34;;;31.47;33.69
38912;BME280;28444;48.056;14.408;2023-07-09T14:29:13;97953.41;;;31.42;33.00
38912;BME280;28444;48.056;14.408;2023-07-09T14:32:05;97946.91;;;31.23;32.37
38912;BME280;28444;48.056;14.408;2023-07-09T14:35:00;97943.47;;;31.32;32.07
38912;BME280;28444;48.056;14.408;2023-07-09T14:37:49;97947.06;;;31.55;31.65
38912;BME280;28444;48.056;14.408;2023-07-09T14:40:36;97945.63;;;31.46;30.23
38912;BME280;28444;48.056;14.408;2023-07-09T14:43:23;97945.59;;;31.32;30.07
38912;BME280;28444;48.056;14.408;2023-07-09T14:46:10;97935.63;;;31.23;30.49
38912;BME280;28444;48.056;14.408;2023-07-09T14:48:57;97937.03;;;31.17;30.72
38912;BME280;28444;48.056;14.408;2023-07-09T14:51:44;97937.06;;;31.26;31.13
38912;BME280;28444;48.056;14.408;2023-07-09T14:54:32;97935.00;;;31.34;31.83
38912;BME280;28444;48.056;14.408;2023-07-09T14:57:24;97923.66;;;31.26;31.45
38912;BME280;28444;48.056;14.408;2023-07-09T15:00:20;97923.63;;;31.20;31.77
38912;BME280;28444;48.056;14.408;2023-07-09T15:03:09;97927.84;;;31.17;32.14
38912;BME280;28444;48.056;14.408;2023-07-09T15:05:56;97918.69;;;31.16;31.47
38912;BME280;28444;48.056;14.408;2023-07-09T15:08:43;97929.28;;;31.24;32.45
38912;BME280;28444;48.056;14.408;2023-07-09T15:11:30;97920.13;;;31.30;32.91
38912;BME280;28444;48.056;14.408;2023-07-09T15:14:17;97923.00;;;31.32;32.35